sensor_id;sensor_type;location;lat;lon;timestamp;P1;durP1;ratioP1;P2;durP2;ratioP2
35306;SDS011;21420;52.196;21.416;2023-02-01T00:00:53;12.00;;;8.20;;
35306;SDS011;21420;52.196;21.416;2023-02-01T00:03:20;9.40;;;7.30;;
35306;SDS011;21420;52.196;21.416;2023-02-01T00:05:57;8.80;;;6.90;;
35306;SDS011;21420;52.196;21.416;2023-02-01T00:08:25;7.80;;;6.70;;
35306;SDS011;21420;52.196;21.416;2023-02-01T00:11:02;9.10;;;6.30;;
35306;SDS011;21420;52.196;21.416;2023-02-01T00:13:31;7.60;;;6.60;;
35306;SDS011;21420;52.196;21.416;2023-02-01T00:16:10;6.80;;;6.10;;
35306;SDS011;21420;52.196;21.416;2023-02-01T00:18:39;8.80;;;6.40;;
35306;SDS011;21420;52.196;21.416;2023-02-01T00:21:10;8.30;;;6.40;;
35306;SDS011;21420;52.196;21.416;2023-02-01T00:23:38;8.00;;;6.10;;
35306;SDS011;21420;52.196;21.416;2023-02-01T00:26:06;7.00;;;5.70;;
35306;SDS011;21420;52.196;21.416;2023-02-01T00:28:37;5.70;;;5.00;;
35306;SDS011;21420;52.196;21.416;2023-02-01T00:31:04;6.10;;;5.40;;
35306;SDS011;21420;52.196;21.416;2023-02-01T00:33:32;6.50;;;5.90;;
35306;SDS011;21420;52.196;21.416;2023-02-01T00:36:01;6.70;;;5.20;;
35306;SDS011;21420;52.196;21.416;2023-02-01T00:38:30;5.50;;;4.60;;
35306;SDS011;21420;52.196;21.416;2023-02-01T00:41:18;4.80;;;4.10;;
35306;SDS011;21420;52.196;21.416;2023-02-01T00:43:48;5.90;;;5.30;;
35306;SDS011;21420;52.196;21.416;2023-02-01T00:46:17;9.50;;;4.70;;
35306;SDS011;21420;52.196;21.416;2023-02-01T00:48:45;5.10;;;4.60;;
35306;SDS011;21420;52.196;21.416;2023-02-01T00:51:14;7.50;;;4.90;;
35306;SDS011;21420;52.196;21.416;2023-02-01T00:56:09;6.50;;;5.60;;
35306;SDS011;21420;52.196;21.416;2023-02-01T00:58:36;6.80;;;5.10;;
35306;SDS011;21420;52.196;21.416;2023-02-01T01:01:14;6.90;;;5.40;;
35306;SDS011;21420;52.196;21.416;2023-02-01T01:03:45;7.30;;;5.60;;
35306;SDS011;21420;52.196;21.416;2023-02-01T01:06:15;6.90;;;5.20;;
35306;SDS011;21420;52.196;21.416;2023-02-01T01:08:43;6.70;;;5.10;;
35306;SDS011;21420;52.196;21.416;2023-02-01T01:11:12;6.50;;;5.10;;
35306;SDS011;21420;52.196;21.416;2023-02-01T01:13:41;6.80;;;4.40;;
35306;SDS011;21420;52.196;21.416;2023-02-01T01:16:09;6.10;;;3.80;;
35306;SDS011;21420;52.196;21.416;2023-02-01T01:18:37;4.50;;;3.20;;
35306;SDS011;21420;52.196;21.416;2023-02-01T01:21:05;8.70;;;3.00;;
35306;SDS011;21420;52.196;21.416;2023-02-01T01:23:33;5.00;;;2.60;;
35306;SDS011;21420;52.196;21.416;2023-02-01T01:26:04;5.20;;;2.80;;
35306;SDS011;21420;52.196;21.416;2023-02-01T01:28:33;5.10;;;2.60;;
35306;SDS011;21420;52.196;21.416;2023-02-01T01:31:01;7.00;;;2.70;;
35306;SDS011;21420;52.196;21.416;2023-02-01T01:33:28;6.10;;;2.70;;
35306;SDS011;21420;52.196;21.416;2023-02-01T01:35:54;4.30;;;2.20;;
35306;SDS011;21420;52.196;21.416;2023-02-01T01:38:21;4.50;;;2.20;;
35306;SDS011;21420;52.196;21.416;2023-02-01T01:40:49;3.90;;;2.40;;
35306;SDS011;21420;52.196;21.416;2023-02-01T01:43:17;5.20;;;2.10;;
35306;SDS011;21420;52.196;21.416;2023-02-01T01:45:50;4.20;;;1.80;;
35306;SDS011;21420;52.196;21.416;2023-02-01T01:48:25;3.30;;;1.70;;
35306;SDS011;21420;52.196;21.416;2023-02-01T01:50:59;7.00;;;2.20;;
35306;SDS011;21420;52.196;21.416;2023-02-01T01:53:38;7.50;;;2.00;;
35306;SDS011;21420;52.196;21.416;2023-02-01T01:56:11;4.50;;;1.70;;
35306;SDS011;21420;52.196;21.416;2023-02-01T01:58:39;2.70;;;1.50;;
35306;SDS011;21420;52.196;21.416;2023-02-01T02:01:07;5.60;;;1.40;;
35306;SDS011;21420;52.196;21.416;2023-02-01T02:03:35;3.70;;;1.40;;
35306;SDS011;21420;52.196;21.416;2023-02-01T02:06:11;5.30;;;1.90;;
35306;SDS011;21420;52.196;21.416;2023-02-01T02:08:45;7.50;;;1.40;;
35306;SDS011;21420;52.196;21.416;2023-02-01T02:11:12;5.40;;;1.50;;
35306;SDS011;21420;52.196;21.416;2023-02-01T02:13:43;4.30;;;1.70;;
35306;SDS011;21420;52.196;21.416;2023-02-01T02:17:17;6.40;;;1.80;;
35306;SDS011;21420;52.196;21.416;2023-02-01T02:24:58;6.00;;;1.80;;
35306;SDS011;21420;52.196;21.416;2023-02-01T02:28:01;5.10;;;1.50;;
35306;SDS011;21420;52.196;21.416;2023-02-01T02:39:08;5.20;;;1.70;;
35306;SDS011;21420;52.196;21.416;2023-02-01T02:50:29;11.10;;;2.70;;
35306;SDS011;21420;52.196;21.416;2023-02-01T02:53:27;9.00;;;2.70;;
35306;SDS011;21420;52.196;21.416;2023-02-01T02:56:26;7.90;;;2.30;;
35306;SDS011;21420;52.196;21.416;2023-02-01T02:59:14;11.80;;;2.50;;
35306;SDS011;21420;52.196;21.416;2023-02-01T03:02:04;6.60;;;2.20;;
35306;SDS011;21420;52.196;21.416;2023-02-01T03:04:53;9.90;;;2.70;;
35306;SDS011;21420;52.196;21.416;2023-02-01T03:10:16;9.10;;;2.10;;
35306;SDS011;21420;52.196;21.416;2023-02-01T03:12:51;9.40;;;2.40;;
35306;SDS011;21420;52.196;21.416;2023-02-01T03:18:08;13.00;;;2.60;;
35306;SDS011;21420;52.196;21.416;2023-02-01T03:20:40;7.10;;;2.00;;
35306;SDS011;21420;52.196;21.416;2023-02-01T03:23:11;10.60;;;2.70;;
35306;SDS011;21420;52.196;21.416;2023-02-01T03:25:42;10.60;;;3.30;;
35306;SDS011;21420;52.196;21.416;2023-02-01T03:28:10;6.40;;;3.10;;
35306;SDS011;21420;52.196;21.416;2023-02-01T03:30:39;8.40;;;2.40;;
35306;SDS011;21420;52.196;21.416;2023-02-01T03:33:13;9.60;;;2.50;;
35306;SDS011;21420;52.196;21.416;2023-02-01T03:47:05;9.20;;;2.40;;
35306;SDS011;21420;52.196;21.416;2023-02-01T03:49:41;11.00;;;2.60;;
35306;SDS011;21420;52.196;21.416;2023-02-01T03:52:14;11.00;;;2.60;;
35306;SDS011;21420;52.196;21.416;2023-02-01T03:54:49;13.00;;;3.50;;
35306;SDS011;21420;52.196;21.416;2023-02-01T03:57:19;10.80;;;3.30;;
35306;SDS011;21420;52.196;21.416;2023-02-01T03:59:50;10.40;;;3.30;;
35306;SDS011;21420;52.196;21.416;2023-02-01T04:02:17;10.50;;;2.60;;
35306;SDS011;21420;52.196;21.416;2023-02-01T04:04:44;10.30;;;2.40;;
35306;SDS011;21420;52.196;21.416;2023-02-01T04:07:13;7.40;;;2.80;;
35306;SDS011;21420;52.196;21.416;2023-02-01T04:09:40;14.10;;;2.80;;
35306;SDS011;21420;52.196;21.416;2023-02-01T04:12:07;12.00;;;3.30;;
35306;SDS011;21420;52.196;21.416;2023-02-01T04:14:34;9.40;;;3.40;;
35306;SDS011;21420;52.196;21.416;2023-02-01T04:17:01;11.00;;;3.30;;
35306;SDS011;21420;52.196;21.416;2023-02-01T04:19:28;19.00;;;5.50;;
35306;SDS011;21420;52.196;21.416;2023-02-01T04:21:55;13.90;;;3.60;;
35306;SDS011;21420;52.196;21.416;2023-02-01T04:24:22;11.80;;;3.10;;
35306;SDS011;21420;52.196;21.416;2023-02-01T04:26:48;9.00;;;3.00;;
35306;SDS011;21420;52.196;21.416;2023-02-01T04:29:15;12.90;;;3.50;;
35306;SDS011;21420;52.196;21.416;2023-02-01T04:31:42;19.40;;;3.80;;
35306;SDS011;21420;52.196;21.416;2023-02-01T04:34:09;12.60;;;4.20;;
35306;SDS011;21420;52.196;21.416;2023-02-01T04:36:36;15.40;;;3.50;;
35306;SDS011;21420;52.196;21.416;2023-02-01T04:39:03;14.60;;;3.80;;
35306;SDS011;21420;52.196;21.416;2023-02-01T04:41:30;16.80;;;3.50;;
35306;SDS011;21420;52.196;21.416;2023-02-01T04:45:32;15.50;;;3.50;;
35306;SDS011;21420;52.196;21.416;2023-02-01T04:47:59;9.90;;;3.20;;
35306;SDS011;21420;52.196;21.416;2023-02-01T04:50:26;10.70;;;3.50;;
35306;SDS011;21420;52.196;21.416;2023-02-01T04:52:53;11.70;;;3.20;;
35306;SDS011;21420;52.196;21.416;2023-02-01T04:55:20;10.00;;;3.60;;
35306;SDS011;21420;52.196;21.416;2023-02-01T04:57:47;14.20;;;3.80;;
35306;SDS011;21420;52.196;21.416;2023-02-01T05:00:14;13.30;;;3.60;;
35306;SDS011;21420;52.196;21.416;2023-02-01T05:02:42;15.40;;;3.20;;
35306;SDS011;21420;52.196;21.416;2023-02-01T05:05:09;11.10;;;3.70;;
35306;SDS011;21420;52.196;21.416;2023-02-01T05:07:35;13.10;;;3.70;;
35306;SDS011;21420;52.196;21.416;2023-02-01T05:10:03;10.50;;;3.60;;
35306;SDS011;21420;52.196;21.416;2023-02-01T05:12:30;17.80;;;4.40;;
35306;SDS011;21420;52.196;21.416;2023-02-01T05:15:32;11.70;;;3.50;;
35306;SDS011;21420;52.196;21.416;2023-02-01T05:17:59;9.00;;;2.80;;
35306;SDS011;21420;52.196;21.416;2023-02-01T05:20:26;13.40;;;3.40;;
35306;SDS011;21420;52.196;21.416;2023-02-01T05:22:53;15.80;;;3.70;;
35306;SDS011;21420;52.196;21.416;2023-02-01T05:25:20;13.00;;;3.90;;
35306;SDS011;21420;52.196;21.416;2023-02-01T05:27:47;10.40;;;3.30;;
35306;SDS011;21420;52.196;21.416;2023-02-01T05:30:14;11.00;;;2.80;;
35306;SDS011;21420;52.196;21.416;2023-02-01T05:32:41;17.60;;;4.40;;
35306;SDS011;21420;52.196;21.416;2023-02-01T05:35:08;19.10;;;3.30;;
35306;SDS011;21420;52.196;21.416;2023-02-01T05:37:35;14.80;;;4.40;;
35306;SDS011;21420;52.196;21.416;2023-02-01T05:40:02;15.90;;;3.90;;
35306;SDS011;21420;52.196;21.416;2023-02-01T05:42:30;20.80;;;4.80;;
35306;SDS011;21420;52.196;21.416;2023-02-01T05:44:56;11.80;;;3.30;;
35306;SDS011;21420;52.196;21.416;2023-02-01T05:47:23;16.30;;;3.60;;
35306;SDS011;21420;52.196;21.416;2023-02-01T05:49:50;15.10;;;4.10;;
35306;SDS011;21420;52.196;21.416;2023-02-01T05:52:17;14.50;;;3.80;;
35306;SDS011;21420;52.196;21.416;2023-02-01T05:54:46;16.00;;;3.90;;
35306;SDS011;21420;52.196;21.416;2023-02-01T05:57:16;14.80;;;3.80;;
35306;SDS011;21420;52.196;21.416;2023-02-01T05:59:43;16.30;;;3.70;;
35306;SDS011;21420;52.196;21.416;2023-02-01T06:02:14;13.10;;;4.30;;
35306;SDS011;21420;52.196;21.416;2023-02-01T06:04:42;16.70;;;4.40;;
35306;SDS011;21420;52.196;21.416;2023-02-01T06:07:09;15.80;;;4.50;;
35306;SDS011;21420;52.196;21.416;2023-02-01T06:09:37;15.50;;;3.90;;
35306;SDS011;21420;52.196;21.416;2023-02-01T06:12:04;12.20;;;4.20;;
35306;SDS011;21420;52.196;21.416;2023-02-01T06:14:31;14.50;;;4.00;;
35306;SDS011;21420;52.196;21.416;2023-02-01T06:16:58;18.70;;;3.30;;
35306;SDS011;21420;52.196;21.416;2023-02-01T06:19:26;15.90;;;3.70;;
35306;SDS011;21420;52.196;21.416;2023-02-01T06:21:52;16.40;;;4.20;;
35306;SDS011;21420;52.196;21.416;2023-02-01T06:24:19;17.20;;;3.60;;
35306;SDS011;21420;52.196;21.416;2023-02-01T06:26:46;9.30;;;2.70;;
35306;SDS011;21420;52.196;21.416;2023-02-01T06:29:13;10.00;;;3.30;;
35306;SDS011;21420;52.196;21.416;2023-02-01T06:31:40;11.70;;;3.10;;
35306;SDS011;21420;52.196;21.416;2023-02-01T06:34:09;11.80;;;3.10;;
35306;SDS011;21420;52.196;21.416;2023-02-01T06:36:36;16.60;;;4.40;;
35306;SDS011;21420;52.196;21.416;2023-02-01T06:39:03;13.30;;;3.80;;
35306;SDS011;21420;52.196;21.416;2023-02-01T06:41:30;17.80;;;3.30;;
35306;SDS011;21420;52.196;21.416;2023-02-01T06:43:57;15.90;;;3.20;;
35306;SDS011;21420;52.196;21.416;2023-02-01T06:46:24;12.50;;;2.90;;
35306;SDS011;21420;52.196;21.416;2023-02-01T06:48:51;11.30;;;3.10;;
35306;SDS011;21420;52.196;21.416;2023-02-01T06:51:19;11.70;;;3.60;;
35306;SDS011;21420;52.196;21.416;2023-02-01T06:53:48;13.80;;;3.40;;
35306;SDS011;21420;52.196;21.416;2023-02-01T06:56:15;16.90;;;4.10;;
35306;SDS011;21420;52.196;21.416;2023-02-01T06:58:42;14.30;;;3.80;;
35306;SDS011;21420;52.196;21.416;2023-02-01T07:01:10;13.90;;;3.50;;
35306;SDS011;21420;52.196;21.416;2023-02-01T07:03:37;11.40;;;2.90;;
35306;SDS011;21420;52.196;21.416;2023-02-01T07:06:04;15.60;;;3.70;;
35306;SDS011;21420;52.196;21.416;2023-02-01T07:08:34;19.50;;;4.30;;
35306;SDS011;21420;52.196;21.416;2023-02-01T07:11:09;14.70;;;3.80;;
35306;SDS011;21420;52.196;21.416;2023-02-01T07:13:37;18.30;;;3.60;;
35306;SDS011;21420;52.196;21.416;2023-02-01T07:16:06;11.20;;;2.70;;
35306;SDS011;21420;52.196;21.416;2023-02-01T07:18:36;14.80;;;4.10;;
35306;SDS011;21420;52.196;21.416;2023-02-01T07:21:04;15.80;;;3.90;;
35306;SDS011;21420;52.196;21.416;2023-02-01T07:23:31;17.40;;;3.40;;
35306;SDS011;21420;52.196;21.416;2023-02-01T07:25:59;15.40;;;3.80;;
35306;SDS011;21420;52.196;21.416;2023-02-01T07:28:29;11.50;;;3.60;;
35306;SDS011;21420;52.196;21.416;2023-02-01T07:33:32;12.40;;;4.40;;
35306;SDS011;21420;52.196;21.416;2023-02-01T07:36:00;16.40;;;4.30;;
35306;SDS011;21420;52.196;21.416;2023-02-01T07:38:29;13.10;;;3.90;;
35306;SDS011;21420;52.196;21.416;2023-02-01T07:41:00;14.00;;;4.30;;
35306;SDS011;21420;52.196;21.416;2023-02-01T07:43:28;18.70;;;4.40;;
35306;SDS011;21420;52.196;21.416;2023-02-01T07:45:55;19.70;;;4.50;;
35306;SDS011;21420;52.196;21.416;2023-02-01T07:48:23;12.90;;;3.50;;
35306;SDS011;21420;52.196;21.416;2023-02-01T07:50:58;15.20;;;4.00;;
35306;SDS011;21420;52.196;21.416;2023-02-01T07:53:26;8.80;;;3.70;;
35306;SDS011;21420;52.196;21.416;2023-02-01T07:55:55;14.10;;;3.80;;
35306;SDS011;21420;52.196;21.416;2023-02-01T07:58:25;13.70;;;4.00;;
35306;SDS011;21420;52.196;21.416;2023-02-01T08:00:53;10.30;;;3.30;;
35306;SDS011;21420;52.196;21.416;2023-02-01T08:06:21;16.10;;;4.10;;
35306;SDS011;21420;52.196;21.416;2023-02-01T08:08:51;17.30;;;4.40;;
35306;SDS011;21420;52.196;21.416;2023-02-01T08:11:20;17.10;;;4.80;;
35306;SDS011;21420;52.196;21.416;2023-02-01T08:13:47;12.70;;;4.20;;
35306;SDS011;21420;52.196;21.416;2023-02-01T08:16:15;13.80;;;3.50;;
35306;SDS011;21420;52.196;21.416;2023-02-01T08:18:44;16.80;;;4.50;;
35306;SDS011;21420;52.196;21.416;2023-02-01T08:21:13;17.20;;;4.10;;
35306;SDS011;21420;52.196;21.416;2023-02-01T08:23:42;13.40;;;3.90;;
35306;SDS011;21420;52.196;21.416;2023-02-01T08:26:11;11.70;;;3.80;;
35306;SDS011;21420;52.196;21.416;2023-02-01T08:28:44;13.90;;;4.40;;
35306;SDS011;21420;52.196;21.416;2023-02-01T08:31:17;12.80;;;4.10;;
35306;SDS011;21420;52.196;21.416;2023-02-01T08:33:50;16.80;;;4.80;;
35306;SDS011;21420;52.196;21.416;2023-02-01T08:36:22;11.60;;;3.70;;
35306;SDS011;21420;52.196;21.416;2023-02-01T08:38:50;12.60;;;3.40;;
35306;SDS011;21420;52.196;21.416;2023-02-01T08:41:22;17.10;;;3.70;;
35306;SDS011;21420;52.196;21.416;2023-02-01T08:43:51;22.50;;;4.30;;
35306;SDS011;21420;52.196;21.416;2023-02-01T08:46:19;16.20;;;3.60;;
35306;SDS011;21420;52.196;21.416;2023-02-01T08:48:47;16.90;;;3.40;;
35306;SDS011;21420;52.196;21.416;2023-02-01T08:51:15;13.20;;;3.70;;
35306;SDS011;21420;52.196;21.416;2023-02-01T08:56:11;11.00;;;3.20;;
35306;SDS011;21420;52.196;21.416;2023-02-01T08:58:39;12.20;;;3.40;;
35306;SDS011;21420;52.196;21.416;2023-02-01T09:01:07;11.00;;;3.60;;
35306;SDS011;21420;52.196;21.416;2023-02-01T09:03:40;15.80;;;4.00;;
35306;SDS011;21420;52.196;21.416;2023-02-01T09:06:09;11.80;;;3.10;;
35306;SDS011;21420;52.196;21.416;2023-02-01T09:08:38;11.80;;;3.10;;
35306;SDS011;21420;52.196;21.416;2023-02-01T09:11:09;13.40;;;3.90;;
35306;SDS011;21420;52.196;21.416;2023-02-01T09:13:38;14.20;;;3.40;;
35306;SDS011;21420;52.196;21.416;2023-02-01T09:16:05;10.60;;;3.60;;
35306;SDS011;21420;52.196;21.416;2023-02-01T09:18:32;10.20;;;3.40;;
35306;SDS011;21420;52.196;21.416;2023-02-01T09:21:03;11.20;;;3.80;;
35306;SDS011;21420;52.196;21.416;2023-02-01T09:23:31;12.40;;;3.30;;
35306;SDS011;21420;52.196;21.416;2023-02-01T09:25:59;14.60;;;4.60;;
35306;SDS011;21420;52.196;21.416;2023-02-01T09:28:27;13.40;;;3.70;;
35306;SDS011;21420;52.196;21.416;2023-02-01T09:30:55;14.50;;;3.50;;
35306;SDS011;21420;52.196;21.416;2023-02-01T09:33:26;12.50;;;3.70;;
35306;SDS011;21420;52.196;21.416;2023-02-01T09:35:55;13.80;;;3.10;;
35306;SDS011;21420;52.196;21.416;2023-02-01T09:38:26;12.40;;;3.50;;
35306;SDS011;21420;52.196;21.416;2023-02-01T09:40:56;13.70;;;5.00;;
35306;SDS011;21420;52.196;21.416;2023-02-01T09:46:16;15.60;;;4.70;;
35306;SDS011;21420;52.196;21.416;2023-02-01T09:48:48;14.70;;;3.80;;
35306;SDS011;21420;52.196;21.416;2023-02-01T09:51:23;15.40;;;3.60;;
35306;SDS011;21420;52.196;21.416;2023-02-01T09:53:59;11.80;;;3.50;;
35306;SDS011;21420;52.196;21.416;2023-02-01T09:56:35;15.30;;;4.00;;
35306;SDS011;21420;52.196;21.416;2023-02-01T10:01:53;11.00;;;3.70;;
35306;SDS011;21420;52.196;21.416;2023-02-01T10:04:21;14.30;;;3.60;;
35306;SDS011;21420;52.196;21.416;2023-02-01T10:12:35;11.50;;;3.40;;
35306;SDS011;21420;52.196;21.416;2023-02-01T10:26:22;16.10;;;5.30;;
35306;SDS011;21420;52.196;21.416;2023-02-01T10:29:03;11.80;;;3.80;;
35306;SDS011;21420;52.196;21.416;2023-02-01T10:31:33;20.60;;;5.00;;
35306;SDS011;21420;52.196;21.416;2023-02-01T10:37:07;15.30;;;4.20;;
35306;SDS011;21420;52.196;21.416;2023-02-01T10:39:46;19.00;;;4.40;;
35306;SDS011;21420;52.196;21.416;2023-02-01T10:42:18;12.10;;;3.90;;
35306;SDS011;21420;52.196;21.416;2023-02-01T10:44:48;11.50;;;4.20;;
35306;SDS011;21420;52.196;21.416;2023-02-01T10:47:16;16.90;;;4.80;;
35306;SDS011;21420;52.196;21.416;2023-02-01T10:52:47;10.90;;;3.90;;
35306;SDS011;21420;52.196;21.416;2023-02-01T10:55:28;15.00;;;4.10;;
35306;SDS011;21420;52.196;21.416;2023-02-01T10:58:00;18.70;;;5.20;;
35306;SDS011;21420;52.196;21.416;2023-02-01T11:05:58;14.10;;;4.00;;
35306;SDS011;21420;52.196;21.416;2023-02-01T11:08:26;8.90;;;3.70;;
35306;SDS011;21420;52.196;21.416;2023-02-01T11:11:01;18.50;;;4.60;;
35306;SDS011;21420;52.196;21.416;2023-02-01T11:13:32;15.00;;;4.70;;
35306;SDS011;21420;52.196;21.416;2023-02-01T11:16:05;23.50;;;6.90;;
35306;SDS011;21420;52.196;21.416;2023-02-01T11:18:36;17.20;;;4.40;;
35306;SDS011;21420;52.196;21.416;2023-02-01T11:21:05;12.10;;;4.50;;
35306;SDS011;21420;52.196;21.416;2023-02-01T11:26:10;13.10;;;4.50;;
35306;SDS011;21420;52.196;21.416;2023-02-01T11:28:57;16.70;;;4.50;;
35306;SDS011;21420;52.196;21.416;2023-02-01T11:31:30;10.90;;;4.50;;
35306;SDS011;21420;52.196;21.416;2023-02-01T11:34:05;15.50;;;5.20;;
35306;SDS011;21420;52.196;21.416;2023-02-01T11:36:53;14.20;;;4.60;;
35306;SDS011;21420;52.196;21.416;2023-02-01T11:39:25;15.60;;;4.60;;
35306;SDS011;21420;52.196;21.416;2023-02-01T11:42:11;16.50;;;4.70;;
35306;SDS011;21420;52.196;21.416;2023-02-01T11:44:44;13.30;;;4.40;;
35306;SDS011;21420;52.196;21.416;2023-02-01T11:49:49;17.70;;;5.30;;
35306;SDS011;21420;52.196;21.416;2023-02-01T11:52:35;15.70;;;5.00;;
35306;SDS011;21420;52.196;21.416;2023-02-01T12:05:56;15.00;;;3.90;;
35306;SDS011;21420;52.196;21.416;2023-02-01T12:08:35;16.60;;;5.20;;
35306;SDS011;21420;52.196;21.416;2023-02-01T12:12:06;13.30;;;4.30;;
35306;SDS011;21420;52.196;21.416;2023-02-01T12:25:13;13.80;;;4.30;;
35306;SDS011;21420;52.196;21.416;2023-02-01T12:38:13;14.50;;;4.30;;
35306;SDS011;21420;52.196;21.416;2023-02-01T12:46:30;12.20;;;4.70;;
35306;SDS011;21420;52.196;21.416;2023-02-01T12:51:36;15.60;;;4.90;;
35306;SDS011;21420;52.196;21.416;2023-02-01T12:54:12;14.20;;;4.20;;
35306;SDS011;21420;52.196;21.416;2023-02-01T12:56:52;13.40;;;4.60;;
35306;SDS011;21420;52.196;21.416;2023-02-01T12:59:31;21.00;;;5.70;;
35306;SDS011;21420;52.196;21.416;2023-02-01T13:05:31;15.20;;;4.80;;
35306;SDS011;21420;52.196;21.416;2023-02-01T13:18:16;14.40;;;4.40;;
35306;SDS011;21420;52.196;21.416;2023-02-01T13:20:47;14.70;;;5.10;;
35306;SDS011;21420;52.196;21.416;2023-02-01T13:23:31;15.50;;;5.40;;
35306;SDS011;21420;52.196;21.416;2023-02-01T13:26:02;21.50;;;5.90;;
35306;SDS011;21420;52.196;21.416;2023-02-01T13:31:24;19.90;;;6.70;;
35306;SDS011;21420;52.196;21.416;2023-02-01T13:37:11;19.20;;;6.00;;
35306;SDS011;21420;52.196;21.416;2023-02-01T13:39:58;20.20;;;6.50;;
35306;SDS011;21420;52.196;21.416;2023-02-01T13:42:27;19.40;;;5.80;;
35306;SDS011;21420;52.196;21.416;2023-02-01T13:45:03;18.10;;;6.00;;
35306;SDS011;21420;52.196;21.416;2023-02-01T13:47:33;21.00;;;5.90;;
35306;SDS011;21420;52.196;21.416;2023-02-01T13:55:38;21.80;;;6.80;;
35306;SDS011;21420;52.196;21.416;2023-02-01T14:00:53;14.60;;;6.30;;
35306;SDS011;21420;52.196;21.416;2023-02-01T14:12:41;14.90;;;5.80;;
35306;SDS011;21420;52.196;21.416;2023-02-01T14:15:24;20.00;;;6.90;;
35306;SDS011;21420;52.196;21.416;2023-02-01T14:17:54;19.10;;;5.80;;
35306;SDS011;21420;52.196;21.416;2023-02-01T14:20:39;15.70;;;5.40;;
35306;SDS011;21420;52.196;21.416;2023-02-01T14:23:14;11.40;;;4.30;;
35306;SDS011;21420;52.196;21.416;2023-02-01T14:25:43;15.80;;;5.40;;
35306;SDS011;21420;52.196;21.416;2023-02-01T14:28:24;11.70;;;4.50;;
35306;SDS011;21420;52.196;21.416;2023-02-01T14:30:53;11.20;;;4.10;;
35306;SDS011;21420;52.196;21.416;2023-02-01T14:33:24;11.50;;;4.50;;
35306;SDS011;21420;52.196;21.416;2023-02-01T14:35:59;14.00;;;5.40;;
35306;SDS011;21420;52.196;21.416;2023-02-01T14:38:39;14.70;;;4.70;;
35306;SDS011;21420;52.196;21.416;2023-02-01T14:41:23;13.50;;;4.40;;
35306;SDS011;21420;52.196;21.416;2023-02-01T14:49:42;10.40;;;4.30;;
35306;SDS011;21420;52.196;21.416;2023-02-01T14:52:17;11.90;;;4.30;;
35306;SDS011;21420;52.196;21.416;2023-02-01T14:54:52;16.70;;;5.10;;
35306;SDS011;21420;52.196;21.416;2023-02-01T14:57:24;11.80;;;4.30;;
35306;SDS011;21420;52.196;21.416;2023-02-01T14:59:57;12.10;;;5.10;;
35306;SDS011;21420;52.196;21.416;2023-02-01T15:02:32;11.70;;;4.90;;
35306;SDS011;21420;52.196;21.416;2023-02-01T15:05:10;9.80;;;5.50;;
35306;SDS011;21420;52.196;21.416;2023-02-01T15:08:32;14.80;;;5.50;;
35306;SDS011;21420;52.196;21.416;2023-02-01T15:10:53;13.30;;;5.60;;
35306;SDS011;21420;52.196;21.416;2023-02-01T15:13:23;11.60;;;5.20;;
35306;SDS011;21420;52.196;21.416;2023-02-01T15:16:09;13.40;;;5.70;;
35306;SDS011;21420;52.196;21.416;2023-02-01T15:18:38;13.00;;;4.80;;
35306;SDS011;21420;52.196;21.416;2023-02-01T15:21:06;10.40;;;5.00;;
35306;SDS011;21420;52.196;21.416;2023-02-01T15:26:47;13.80;;;5.60;;
35306;SDS011;21420;52.196;21.416;2023-02-01T15:29:14;12.40;;;5.00;;
35306;SDS011;21420;52.196;21.416;2023-02-01T15:31:44;14.50;;;5.60;;
35306;SDS011;21420;52.196;21.416;2023-02-01T15:34:16;8.10;;;4.50;;
35306;SDS011;21420;52.196;21.416;2023-02-01T15:36:45;8.70;;;4.30;;
35306;SDS011;21420;52.196;21.416;2023-02-01T15:39:28;7.20;;;4.00;;
35306;SDS011;21420;52.196;21.416;2023-02-01T15:41:59;8.10;;;4.30;;
35306;SDS011;21420;52.196;21.416;2023-02-01T15:44:43;7.80;;;4.30;;
35306;SDS011;21420;52.196;21.416;2023-02-01T15:47:16;6.40;;;4.20;;
35306;SDS011;21420;52.196;21.416;2023-02-01T15:49:47;8.80;;;4.00;;
35306;SDS011;21420;52.196;21.416;2023-02-01T15:55:08;10.40;;;5.10;;
35306;SDS011;21420;52.196;21.416;2023-02-01T15:57:45;8.60;;;4.50;;
35306;SDS011;21420;52.196;21.416;2023-02-01T16:02:54;8.30;;;4.60;;
35306;SDS011;21420;52.196;21.416;2023-02-01T16:07:57;9.20;;;4.90;;
35306;SDS011;21420;52.196;21.416;2023-02-01T16:10:31;8.50;;;4.10;;
35306;SDS011;21420;52.196;21.416;2023-02-01T16:13:05;8.50;;;4.10;;
35306;SDS011;21420;52.196;21.416;2023-02-01T16:15:31;8.10;;;3.70;;
35306;SDS011;21420;52.196;21.416;2023-02-01T16:17:59;7.10;;;3.80;;
35306;SDS011;21420;52.196;21.416;2023-02-01T16:20:26;11.60;;;4.90;;
35306;SDS011;21420;52.196;21.416;2023-02-01T16:22:53;9.20;;;4.20;;
35306;SDS011;21420;52.196;21.416;2023-02-01T16:25:20;11.40;;;5.00;;
35306;SDS011;21420;52.196;21.416;2023-02-01T16:27:48;9.30;;;5.40;;
35306;SDS011;21420;52.196;21.416;2023-02-01T16:30:15;8.50;;;4.60;;
35306;SDS011;21420;52.196;21.416;2023-02-01T16:32:45;11.30;;;5.50;;
35306;SDS011;21420;52.196;21.416;2023-02-01T16:35:17;7.50;;;5.20;;
35306;SDS011;21420;52.196;21.416;2023-02-01T16:38:11;8.70;;;5.00;;
35306;SDS011;21420;52.196;21.416;2023-02-01T16:40:40;8.80;;;4.90;;
35306;SDS011;21420;52.196;21.416;2023-02-01T16:45:44;12.20;;;5.60;;
35306;SDS011;21420;52.196;21.416;2023-02-01T16:48:22;10.10;;;5.10;;
35306;SDS011;21420;52.196;21.416;2023-02-01T16:50:55;9.70;;;5.40;;
35306;SDS011;21420;52.196;21.416;2023-02-01T16:53:24;8.80;;;4.70;;
35306;SDS011;21420;52.196;21.416;2023-02-01T16:55:54;9.30;;;5.60;;
35306;SDS011;21420;52.196;21.416;2023-02-01T16:58:24;9.00;;;5.80;;
35306;SDS011;21420;52.196;21.416;2023-02-01T17:00:53;9.50;;;5.80;;
35306;SDS011;21420;52.196;21.416;2023-02-01T17:03:21;13.10;;;6.40;;
35306;SDS011;21420;52.196;21.416;2023-02-01T17:05:52;12.90;;;6.30;;
35306;SDS011;21420;52.196;21.416;2023-02-01T17:08:27;11.60;;;5.80;;
35306;SDS011;21420;52.196;21.416;2023-02-01T17:11:01;10.90;;;6.40;;
35306;SDS011;21420;52.196;21.416;2023-02-01T17:13:29;8.50;;;6.10;;
35306;SDS011;21420;52.196;21.416;2023-02-01T17:15:58;13.40;;;6.80;;
35306;SDS011;21420;52.196;21.416;2023-02-01T17:18:31;13.00;;;6.60;;
35306;SDS011;21420;52.196;21.416;2023-02-01T17:21:01;11.40;;;7.00;;
35306;SDS011;21420;52.196;21.416;2023-02-01T17:23:31;13.40;;;6.30;;
35306;SDS011;21420;52.196;21.416;2023-02-01T17:25:58;13.40;;;6.90;;
35306;SDS011;21420;52.196;21.416;2023-02-01T17:28:25;11.70;;;6.30;;
35306;SDS011;21420;52.196;21.416;2023-02-01T17:30:52;11.90;;;6.70;;
35306;SDS011;21420;52.196;21.416;2023-02-01T17:33:33;12.70;;;5.80;;
35306;SDS011;21420;52.196;21.416;2023-02-01T17:36:04;13.70;;;6.70;;
35306;SDS011;21420;52.196;21.416;2023-02-01T17:38:32;15.90;;;6.50;;
35306;SDS011;21420;52.196;21.416;2023-02-01T17:41:03;14.10;;;6.90;;
35306;SDS011;21420;52.196;21.416;2023-02-01T17:43:30;11.10;;;6.60;;
35306;SDS011;21420;52.196;21.416;2023-02-01T17:45:58;10.50;;;6.00;;
35306;SDS011;21420;52.196;21.416;2023-02-01T17:48:30;9.50;;;6.50;;
35306;SDS011;21420;52.196;21.416;2023-02-01T17:50:57;15.70;;;7.20;;
35306;SDS011;21420;52.196;21.416;2023-02-01T17:53:24;15.30;;;7.60;;
35306;SDS011;21420;52.196;21.416;2023-02-01T17:55:53;12.90;;;6.50;;
35306;SDS011;21420;52.196;21.416;2023-02-01T17:58:20;13.70;;;7.00;;